Vancourt, Texas
Current Conditions -  °F | °C
As of 2:51 AM on Friday 19 Dec 2014 (Local Time) from KSJT Reporting Station
Overcast Overcast  
Wind Chill: 43°   Ceiling: 800
Heat Index: 48°   Visibility: 10mi
Dew Point: 43°   Wind: 12mph
Humidity: 83%   Direction: 20°NNE
Pressure: 30.1"   Gusts: NA
Location:  31.34°N, 100.18°W
Report Text: KSJT 190851Z AUTO 02010KT 10SM OVC008 09/06 A3010 RMK AO2 LTG DSNT E SLP187 T00890061 53002
Loading
Personal Weather Stations






























Interactive Weather Map New forecast layout! Learn more

10-Day Weather Forecast

Advertisements
Track Severe Weather on mobile